Time;durP1;ratioP1;P1;durP2;ratioP2;P2;SDS_P1;SDS_P2;PMS_P1;PMS_P2;Temp;Humidity;BMP_temperature;BMP_pressure;BME280_temperature;BME280_humidity;BME280_pressure;Samples;Min_cycle;Max_cycle;Signal;HPM_P1;HPM_P2
2022/08/07 00:58:21;;;;;;;;;;;;;;;18.91;36.01;100412.88;1085190;46;20170;-74
2022/08/07 00:59:26;;;;;;;;;;;;;;;18.99;35.44;100423.63;1083958;54;19947;-74
2022/08/07 01:00:30;;;;;;;;;;;;;;;19.01;35.39;100414.28;1084040;39;20372;-74
2022/08/07 01:01:32;;;;;;;;;;;;;;;18.91;35.73;100412.88;1083766;54;20014;-75
2022/08/07 01:02:35;;;;;;;;;;;;;;;18.82;36.25;100410.28;1083878;46;19966;-73
2022/08/07 01:03:37;;;;;;;;;;;;;;;18.80;35.96;100417.75;1083932;54;19951;-77
2022/08/07 01:04:40;;;;;;;;;;;;;;;18.82;36.25;100410.28;1084602;39;20328;-73
2022/08/07 01:05:44;;;;;;;;;;;;;;;18.74;36.18;100410.41;1084077;54;19938;-74
2022/08/07 01:06:48;;;;;;;;;;;;;;;18.75;36.24;100413.97;1084332;54;19962;-73
2022/08/07 01:07:51;;;;;;;;;;;;;;;18.69;36.20;100420.97;1084367;54;19950;-74
2022/08/07 01:08:55;;;;;;;;;;;;;;;18.70;36.65;100422.66;1083889;54;20678;-73
2022/08/07 01:09:56;;;;;;;;;;;;;;;18.66;36.67;100415.91;1084874;39;20369;-73
2022/08/07 01:11:00;;;;;;;;;;;;;;;18.67;36.56;100417.59;1084538;54;19946;-73
2022/08/07 01:12:01;;;;;;;;;;;;;;;18.66;36.66;100424.88;1083965;54;19962;-73
2022/08/07 01:13:05;;;;;;;;;;;;;;;18.70;36.47;100417.22;1083774;54;19966;-74
2022/08/07 01:14:07;;;;;;;;;;;;;;;18.65;36.78;100419.66;1083919;54;19954;-72
2022/08/07 01:15:13;;;;;;;;;;;;;;;18.68;36.45;100419.28;1083947;54;19939;-73
2022/08/07 01:16:15;;;;;;;;;;;;;;;18.65;36.78;100425.06;1083392;54;19947;-75
2022/08/07 01:17:20;;;;;;;;;;;;;;;18.73;36.58;100421.44;1083520;54;19947;-74
2022/08/07 01:18:21;;;;;;;;;;;;;;;18.79;36.45;100421.50;1083595;54;19946;-76
2022/08/07 01:19:25;;;;;;;;;;;;;;;18.78;36.63;100430.66;1083576;54;19946;-72
2022/08/07 01:20:33;;;;;;;;;;;;;;;18.84;36.48;100423.66;1083496;54;19951;-75
2022/08/07 01:21:39;;;;;;;;;;;;;;;18.84;36.19;100418.22;1084397;31;20437;-75
2022/08/07 01:22:41;;;;;;;;;;;;;;;18.78;36.34;100414.41;1083542;54;20032;-74
2022/08/07 01:23:46;;;;;;;;;;;;;;;18.76;36.70;100427.28;1083620;54;19951;-74
2022/08/07 01:24:47;;;;;;;;;;;;;;;18.70;36.67;100420.78;1083817;54;19951;-77
2022/08/07 01:25:51;;;;;;;;;;;;;;;18.69;37.01;100426.38;1083764;54;20042;-73
2022/08/07 01:26:52;;;;;;;;;;;;;;;18.76;36.80;100421.88;1083676;54;19946;-75
2022/08/07 01:27:57;;;;;;;;;;;;;;;18.81;36.20;100416.72;1083537;54;20066;-75
2022/08/07 01:28:58;;;;;;;;;;;;;;;18.84;36.20;100419.06;1083655;54;19947;-75
2022/08/07 01:30:02;;;;;;;;;;;;;;;18.84;36.75;100416.34;1083582;54;19994;-76
2022/08/07 01:31:04;;;;;;;;;;;;;;;18.79;36.77;100416.09;1083676;54;19947;-74
2022/08/07 01:32:08;;;;;;;;;;;;;;;18.82;36.73;100417.56;1083435;54;19970;-73
2022/08/07 01:33:09;;;;;;;;;;;;;;;18.81;36.42;100419.44;1083823;54;19969;-74
2022/08/07 01:34:13;;;;;;;;;;;;;;;18.84;36.51;100410.94;1083889;54;20054;-74
2022/08/07 01:35:16;;;;;;;;;;;;;;;18.89;36.14;100414.94;1084209;54;20034;-74
2022/08/07 01:36:20;;;;;;;;;;;;;;;18.89;36.45;100414.94;1084259;54;19961;-74
2022/08/07 01:37:23;;;;;;;;;;;;;;;18.86;36.67;100417.00;1084099;54;19950;-73
2022/08/07 01:38:28;;;;;;;;;;;;;;;18.94;36.58;100417.94;1084398;54;19974;-74
2022/08/07 01:39:30;;;;;;;;;;;;;;;18.90;36.68;100417.47;1084094;54;19939;-74
2022/08/07 01:40:34;;;;;;;;;;;;;;;18.94;36.65;100421.47;1084214;54;20028;-73
2022/08/07 01:41:37;;;;;;;;;;;;;;;18.82;37.03;100415.69;1084089;54;19939;-73
2022/08/07 01:42:41;;;;;;;;;;;;;;;18.81;36.80;100419.44;1087303;54;19926;-78
2022/08/07 01:43:43;;;;;;;;;;;;;;;18.75;37.18;100422.91;1091045;46;19923;-78
2022/08/07 01:45:10;;;;;;;;;;;;;;;18.80;36.98;100417.75;1088241;54;19963;-76
2022/08/07 01:46:12;;;;;;;;;;;;;;;18.80;36.98;100420.44;1087868;54;19950;-77
2022/08/07 01:47:27;;;;;;;;;;;;;;;18.81;37.05;100416.72;1088544;54;19934;-78
2022/08/07 01:48:28;;;;;;;;;;;;;;;18.82;36.75;100414.88;1091604;46;19970;-74
2022/08/07 01:49:32;;;;;;;;;;;;;;;18.74;37.16;100423.94;1084085;54;19973;-73
2022/08/07 01:50:35;;;;;;;;;;;;;;;18.75;37.25;100427.50;1084313;54;19938;-75
2022/08/07 01:51:39;;;;;;;;;;;;;;;18.70;37.59;100419.94;1085340;54;19950;-78
2022/08/07 01:52:44;;;;;;;;;;;;;;;18.69;37.42;100424.50;1086304;54;19946;-76
2022/08/07 01:53:49;;;;;;;;;;;;;;;18.71;37.10;100421.59;1085546;54;19947;-75
2022/08/07 01:54:51;;;;;;;;;;;;;;;18.64;37.69;100417.97;1085672;54;19950;-73
2022/08/07 01:55:57;;;;;;;;;;;;;;;18.65;37.54;100414.25;1085783;54;19939;-76
2022/08/07 01:57:01;;;;;;;;;;;;;;;18.52;37.91;100415.75;1085741;54;19950;-74
2022/08/07 01:58:09;;;;;;;;;;;;;;;18.49;38.20;100413.44;1085528;54;19951;-73
2022/08/07 01:59:16;;;;;;;;;;;;;;;18.44;38.14;100417.72;1086776;54;19949;-78
2022/08/07 02:00:20;;;;;;;;;;;;;;;18.46;37.92;100424.63;1087431;54;19950;-79
2022/08/07 02:01:23;;;;;;;;;;;;;;;18.47;37.84;100418.19;1088777;46;19939;-77
2022/08/07 02:02:30;;;;;;;;;;;;;;;18.48;37.82;100414.44;1086164;54;20033;-73
2022/08/07 02:03:33;;;;;;;;;;;;;;;18.48;38.33;100419.00;1085339;54;19946;-73
2022/08/07 02:04:41;;;;;;;;;;;;;;;18.49;37.83;100409.88;1085428;54;20058;-74
2022/08/07 02:05:44;;;;;;;;;;;;;;;18.51;37.65;100415.94;1085465;54;19954;-73
2022/08/07 02:06:48;;;;;;;;;;;;;;;18.47;38.02;100412.75;1085020;47;19947;-75
2022/08/07 02:07:53;;;;;;;;;;;;;;;18.48;37.78;100403.63;1085417;54;19946;-76
2022/08/07 02:08:58;;;;;;;;;;;;;;;18.51;37.87;100405.97;1082989;54;19951;-73
2022/08/07 02:10:00;;;;;;;;;;;;;;;18.49;37.63;100417.97;1083423;54;19946;-74
2022/08/07 02:11:05;;;;;;;;;;;;;;;18.47;37.73;100418.19;1083505;54;19970;-75
2022/08/07 02:12:15;;;;;;;;;;;;;;;18.49;37.75;100417.97;1083412;54;20187;-75
2022/08/07 02:13:19;;;;;;;;;;;;;;;18.50;38.11;100407.00;1083538;54;19951;-78
2022/08/07 02:14:21;;;;;;;;;;;;;;;18.53;37.81;100406.59;1084375;31;20413;-77
2022/08/07 02:15:26;;;;;;;;;;;;;;;18.54;37.86;100402.84;1083528;54;19950;-75
2022/08/07 02:16:29;;;;;;;;;;;;;;;18.54;37.76;100400.16;1083872;39;20352;-75
2022/08/07 02:17:33;;;;;;;;;;;;;;;18.46;38.12;100399.44;1084271;39;20352;-76
2022/08/07 02:18:37;;;;;;;;;;;;;;;18.37;38.25;100395.97;1084539;39;20352;-74
2022/08/07 02:19:43;;;;;;;;;;;;;;;18.33;38.32;100398.22;1083908;54;20441;-76
2022/08/07 02:20:46;;;;;;;;;;;;;;;18.21;38.98;100397.00;1083728;54;19978;-74
2022/08/07 02:21:50;;;;;;;;;;;;;;;18.18;39.06;100398.22;1084220;54;20548;-74
2022/08/07 02:22:57;;;;;;;;;;;;;;;18.20;38.67;100396.16;1084780;54;19970;-74
2022/08/07 02:24:01;;;;;;;;;;;;;;;18.26;38.67;100394.59;1084390;54;19942;-76
2022/08/07 02:25:04;;;;;;;;;;;;;;;18.25;39.00;100401.03;1084469;54;19973;-76
2022/08/07 02:26:09;;;;;;;;;;;;;;;18.16;39.20;100394.03;1084025;54;19947;-77
2022/08/07 02:27:11;;;;;;;;;;;;;;;18.20;38.75;100395.31;1084262;54;19947;-73
2022/08/07 02:28:16;;;;;;;;;;;;;;;18.20;38.86;100392.59;1084951;39;20318;-73
2022/08/07 02:29:18;;;;;;;;;;;;;;;18.15;39.37;100387.75;1085087;54;19973;-75
2022/08/07 02:30:22;;;;;;;;;;;;;;;18.17;38.83;100383.00;1084834;54;19970;-76
2022/08/07 02:31:26;;;;;;;;;;;;;;;18.12;39.46;100393.56;1085286;54;19973;-75
2022/08/07 02:32:31;;;;;;;;;;;;;;;18.16;39.36;100396.72;1085154;54;19946;-75
2022/08/07 02:33:36;;;;;;;;;;;;;;;18.18;39.04;100392.81;1084873;54;19957;-75
2022/08/07 02:34:38;;;;;;;;;;;;;;;18.17;39.50;100387.59;1085031;54;19958;-74
2022/08/07 02:35:42;;;;;;;;;;;;;;;18.19;39.19;100388.22;1084732;54;20425;-75
2022/08/07 02:36:44;;;;;;;;;;;;;;;18.19;39.18;100375.56;1084523;54;19950;-76
2022/08/07 02:37:49;;;;;;;;;;;;;;;18.14;39.47;100385.25;1085290;39;20376;-75
2022/08/07 02:38:55;;;;;;;;;;;;;;;18.12;39.23;100387.28;1084284;54;19946;-75
2022/08/07 02:40:00;;;;;;;;;;;;;;;18.18;39.16;100383.88;1084626;54;19947;-75
2022/08/07 02:41:02;;;;;;;;;;;;;;;18.18;39.26;100384.69;1084795;54;20437;-78
2022/08/07 02:42:07;;;;;;;;;;;;;;;18.11;39.55;100381.06;1084626;54;19950;-76
2022/08/07 02:43:08;;;;;;;;;;;;;;;18.04;39.63;100380.13;1084264;54;19950;-75
2022/08/07 02:44:13;;;;;;;;;;;;;;;18.09;39.30;100377.69;1083923;54;19974;-77
2022/08/07 02:45:16;;;;;;;;;;;;;;;18.13;39.48;100379.00;1084533;54;19954;-76
2022/08/07 02:46:21;;;;;;;;;;;;;;;18.15;39.07;100376.94;1084579;54;20456;-77
2022/08/07 02:47:22;;;;;;;;;;;;;;;18.14;39.24;100377.97;1084487;54;19955;-76
2022/08/07 02:48:27;;;;;;;;;;;;;;;18.11;39.38;100377.50;1084434;54;20059;-75
2022/08/07 02:49:28;;;;;;;;;;;;;;;18.14;39.13;100380.66;1084426;54;20015;-76
2022/08/07 02:50:33;;;;;;;;;;;;;;;18.04;39.75;100374.72;1084482;54;19939;-73
2022/08/07 02:51:35;;;;;;;;;;;;;;;17.96;40.03;100372.94;1084427;54;19970;-74
2022/08/07 02:52:42;;;;;;;;;;;;;;;17.87;40.08;100379.41;1084754;54;20054;-74
2022/08/07 02:53:44;;;;;;;;;;;;;;;17.76;40.26;100377.97;1085072;46;19946;-75
2022/08/07 02:54:52;;;;;;;;;;;;;;;17.80;40.10;100368.50;1084740;54;19947;-75
2022/08/07 02:55:55;;;;;;;;;;;;;;;17.77;40.62;100376.97;1084695;54;19951;-73
2022/08/07 02:57:02;;;;;;;;;;;;;;;17.66;40.79;100388.25;1083934;54;19969;-74
2022/08/07 02:58:05;;;;;;;;;;;;;;;17.66;40.76;100380.97;1084111;54;19966;-72
2022/08/07 02:59:15;;;;;;;;;;;;;;;17.61;40.57;100383.38;1083909;54;19946;-74
2022/08/07 03:00:16;;;;;;;;;;;;;;;17.57;41.03;100380.19;1084580;54;19946;-74
2022/08/07 03:01:21;;;;;;;;;;;;;;;17.51;40.99;100378.22;1085186;54;19947;-74
2022/08/07 03:02:22;;;;;;;;;;;;;;;17.60;41.04;100379.00;1088331;46;19947;-78
2022/08/07 03:03:28;;;;;;;;;;;;;;;17.66;40.96;100378.25;1087939;54;19949;-73
2022/08/07 03:04:30;;;;;;;;;;;;;;;17.69;40.69;100371.63;1084310;54;19961;-73
2022/08/07 03:05:35;;;;;;;;;;;;;;;17.73;40.77;100373.78;1084325;54;19947;-73
2022/08/07 03:06:36;;;;;;;;;;;;;;;17.73;41.08;100372.97;1084030;54;19951;-73
2022/08/07 03:07:42;;;;;;;;;;;;;;;17.76;40.56;100373.44;1084267;54;20436;-73
2022/08/07 03:08:43;;;;;;;;;;;;;;;17.78;40.75;100375.94;1084108;54;19947;-75
2022/08/07 03:09:47;;;;;;;;;;;;;;;17.76;40.76;100372.56;1083733;54;19950;-80
2022/08/07 03:10:51;;;;;;;;;;;;;;;17.73;40.98;100375.66;1084638;54;19950;-74
2022/08/07 03:11:55;;;;;;;;;;;;;;;17.64;40.91;100374.06;1084206;54;19951;-76
2022/08/07 03:12:56;;;;;;;;;;;;;;;17.64;41.16;100374.06;1084068;54;19947;-78
2022/08/07 03:14:01;;;;;;;;;;;;;;;17.71;40.79;100378.53;1084444;46;19950;-73
2022/08/07 03:15:02;;;;;;;;;;;;;;;17.67;40.84;100373.69;1084025;54;19946;-71
2022/08/07 03:16:06;;;;;;;;;;;;;;;17.71;40.68;100381.25;1084186;54;19938;-72
2022/08/07 03:17:07;;;;;;;;;;;;;;;17.73;40.75;100373.78;1083937;54;19939;-71
2022/08/07 03:18:12;;;;;;;;;;;;;;;17.74;40.51;100374.66;1083547;54;19946;-76
2022/08/07 03:19:13;;;;;;;;;;;;;;;17.75;40.77;100373.63;1083685;54;19954;-74
2022/08/07 03:20:17;;;;;;;;;;;;;;;17.75;40.77;100373.63;1083341;54;19950;-74
2022/08/07 03:21:19;;;;;;;;;;;;;;;17.68;40.78;100368.13;1084180;54;19950;-73
2022/08/07 03:22:23;;;;;;;;;;;;;;;17.65;41.03;100376.56;1084301;54;19943;-72
2022/08/07 03:23:26;;;;;;;;;;;;;;;17.61;40.76;100378.81;1084303;54;20035;-71
2022/08/07 03:24:30;;;;;;;;;;;;;;;17.66;40.84;100388.25;1084329;46;19973;-73
2022/08/07 03:25:32;;;;;;;;;;;;;;;17.66;40.75;100388.25;1084234;54;19950;-75
2022/08/07 03:26:40;;;;;;;;;;;;;;;17.61;41.03;100370.69;1084864;54;19946;-76
2022/08/07 03:27:48;;;;;;;;;;;;;;;17.64;40.72;100374.91;1085043;39;20460;-74
2022/08/07 03:29:00;;;;;;;;;;;;;;;17.64;40.71;100377.59;1084200;54;19998;-75
2022/08/07 03:30:09;;;;;;;;;;;;;;;17.60;41.03;100387.13;1084285;54;19971;-74
2022/08/07 03:31:28;;;;;;;;;;;;;;;17.61;40.94;100380.69;1084339;39;20519;-74
2022/08/07 03:32:32;;;;;;;;;;;;;;;17.53;40.96;100378.03;1083612;54;19958;-75
2022/08/07 03:33:36;;;;;;;;;;;;;;;17.50;41.10;100387.34;1084386;39;20381;-76
2022/08/07 03:34:38;;;;;;;;;;;;;;;17.46;41.12;100389.56;1084274;54;19957;-76
2022/08/07 03:35:43;;;;;;;;;;;;;;;17.40;41.69;100389.47;1084121;54;20034;-74
2022/08/07 03:36:47;;;;;;;;;;;;;;;17.35;41.68;100390.00;1083986;54;20445;-76
2022/08/07 03:37:49;;;;;;;;;;;;;;;17.36;41.73;100382.75;1083609;54;20548;-75
2022/08/07 03:38:55;;;;;;;;;;;;;;;17.28;41.83;100380.94;1084495;54;19945;-74
2022/08/07 03:39:56;;;;;;;;;;;;;;;17.19;42.38;100384.72;1084659;54;19947;-76
2022/08/07 03:41:00;;;;;;;;;;;;;;;17.14;42.39;100382.56;1084395;54;20013;-75
2022/08/07 03:42:06;;;;;;;;;;;;;;;17.08;42.72;100381.44;1084358;54;20445;-75
2022/08/07 03:43:09;;;;;;;;;;;;;;;17.08;42.53;100383.28;1084389;54;19945;-74
2022/08/07 03:44:12;;;;;;;;;;;;;;;17.08;42.85;100389.53;1084418;54;19942;-74
2022/08/07 03:45:16;;;;;;;;;;;;;;;16.98;42.83;100389.78;1085231;39;20299;-74
2022/08/07 03:46:17;;;;;;;;;;;;;;;16.95;43.17;100386.59;1084644;39;20400;-75
2022/08/07 03:47:21;;;;;;;;;;;;;;;16.93;42.94;100394.84;1084187;54;19946;-73
2022/08/07 03:48:23;;;;;;;;;;;;;;;16.91;43.10;100399.56;1084933;54;19954;-72
2022/08/07 03:49:26;;;;;;;;;;;;;;;16.83;43.20;100391.50;1085114;54;19958;-75
2022/08/07 03:50:28;;;;;;;;;;;;;;;16.85;43.13;100397.56;1086732;54;19957;-74
2022/08/07 03:51:34;;;;;;;;;;;;;;;16.81;43.05;100397.09;1086520;46;19938;-75
2022/08/07 03:52:36;;;;;;;;;;;;;;;16.78;43.03;100388.50;1086102;54;19958;-76
2022/08/07 03:53:40;;;;;;;;;;;;;;;16.80;43.04;100399.97;1086215;54;19970;-74
2022/08/07 03:54:41;;;;;;;;;;;;;;;16.82;43.25;100395.22;1086053;54;20030;-75
2022/08/07 03:55:45;;;;;;;;;;;;;;;16.83;43.39;100402.31;1084638;54;20511;-75
2022/08/07 03:56:47;;;;;;;;;;;;;;;16.83;42.92;100396.91;1083760;54;19974;-75
2022/08/07 03:57:53;;;;;;;;;;;;;;;16.84;43.39;100402.16;1084196;54;19958;-77
2022/08/07 03:58:54;;;;;;;;;;;;;;;16.84;43.01;100401.28;1084281;54;19957;-75
2022/08/07 03:59:58;;;;;;;;;;;;;;;16.81;43.28;100407.88;1083827;54;20780;-76
2022/08/07 04:01:00;;;;;;;;;;;;;;;16.84;43.23;100402.16;1084242;54;19977;-75
2022/08/07 04:02:03;;;;;;;;;;;;;;;16.79;43.21;100409.91;1084041;54;19946;-75
2022/08/07 04:03:05;;;;;;;;;;;;;;;16.81;43.36;100407.06;1084066;54;19973;-75
2022/08/07 04:04:08;;;;;;;;;;;;;;;16.80;43.45;100405.38;1083824;54;19946;-76
2022/08/07 04:05:09;;;;;;;;;;;;;;;16.81;43.44;100404.34;1084167;54;19970;-75
2022/08/07 04:06:14;;;;;;;;;;;;;;;16.83;43.42;100405.00;1083907;54;20003;-74
2022/08/07 04:07:16;;;;;;;;;;;;;;;16.91;42.88;100410.34;1083748;54;19955;-76
2022/08/07 04:08:19;;;;;;;;;;;;;;;16.97;43.02;100406.13;1084060;54;20439;-75
2022/08/07 04:09:21;;;;;;;;;;;;;;;17.05;42.46;100407.94;1083706;54;19993;-73
2022/08/07 04:10:25;;;;;;;;;;;;;;;17.07;42.79;100406.75;1084017;39;20369;-74
2022/08/07 04:11:26;;;;;;;;;;;;;;;17.11;42.59;100407.22;1083265;54;19970;-73
2022/08/07 04:12:31;;;;;;;;;;;;;;;17.08;42.50;100407.59;1083049;54;19989;-74
2022/08/07 04:13:35;;;;;;;;;;;;;;;17.04;42.71;100401.72;1083096;54;20485;-73
2022/08/07 04:14:39;;;;;;;;;;;;;;;16.98;42.88;100408.69;1083888;54;19962;-75
2022/08/07 04:15:40;;;;;;;;;;;;;;;17.07;42.68;100408.63;1085036;54;19951;-75
2022/08/07 04:16:44;;;;;;;;;;;;;;;17.06;42.61;100406.94;1085481;54;19950;-74
2022/08/07 04:17:45;;;;;;;;;;;;;;;17.02;43.12;100411.00;1085081;54;19974;-74
2022/08/07 04:18:49;;;;;;;;;;;;;;;16.96;43.10;100399.03;1085687;54;19946;-74
2022/08/07 04:19:50;;;;;;;;;;;;;;;16.94;43.26;100401.94;1085312;54;19953;-76
2022/08/07 04:20:54;;;;;;;;;;;;;;;16.87;43.24;100408.19;1086522;54;19958;-75
2022/08/07 04:21:55;;;;;;;;;;;;;;;16.87;43.23;100403.63;1086479;54;19946;-75
2022/08/07 04:22:59;;;;;;;;;;;;;;;16.95;42.83;100409.03;1086286;54;19969;-75
2022/08/07 04:24:02;;;;;;;;;;;;;;;17.04;42.78;100406.25;1086018;54;19951;-76
2022/08/07 04:25:06;;;;;;;;;;;;;;;17.08;42.38;100408.44;1086121;39;20331;-76
2022/08/07 04:26:07;;;;;;;;;;;;;;;17.08;42.89;100413.00;1086025;54;19953;-74
2022/08/07 04:27:11;;;;;;;;;;;;;;;17.03;43.29;100408.13;1084299;54;19946;-74
2022/08/07 04:28:12;;;;;;;;;;;;;;;17.00;43.02;100409.31;1083910;47;19946;-76
2022/08/07 04:29:19;;;;;;;;;;;;;;;16.92;43.40;100409.34;1082333;54;19992;-78
2022/08/07 04:30:20;;;;;;;;;;;;;;;16.86;43.54;100401.13;1082382;54;19946;-78
2022/08/07 04:31:25;;;;;;;;;;;;;;;16.84;43.73;100410.25;1083011;54;19963;-77
2022/08/07 04:32:26;;;;;;;;;;;;;;;16.78;43.80;100412.81;1083001;54;19954;-76
2022/08/07 04:33:31;;;;;;;;;;;;;;;16.75;43.70;100407.75;1083505;54;20425;-77
2022/08/07 04:34:32;;;;;;;;;;;;;;;16.71;44.01;100415.38;1083008;54;20046;-77
2022/08/07 04:35:37;;;;;;;;;;;;;;;16.73;43.84;100415.16;1083492;54;19981;-78
2022/08/07 04:36:40;;;;;;;;;;;;;;;16.76;43.67;100412.13;1084026;54;19946;-77
2022/08/07 04:37:44;;;;;;;;;;;;;;;16.77;43.87;100421.91;1083396;54;19981;-78
2022/08/07 04:38:45;;;;;;;;;;;;;;;16.83;43.56;100415.81;1083889;54;19947;-78
2022/08/07 04:39:49;;;;;;;;;;;;;;;16.84;43.93;100414.78;1083817;54;20488;-78
2022/08/07 04:40:54;;;;;;;;;;;;;;;16.90;43.53;100413.25;1083795;54;19950;-76
2022/08/07 04:41:56;;;;;;;;;;;;;;;16.94;43.39;100418.13;1083913;54;20011;-78
2022/08/07 04:43:00;;;;;;;;;;;;;;;16.90;43.75;100422.19;1083809;54;20473;-78
2022/08/07 04:44:04;;;;;;;;;;;;;;;16.95;43.64;100422.53;1083888;54;19946;-77
2022/08/07 04:45:10;;;;;;;;;;;;;;;16.89;43.61;100420.50;1083483;46;20053;-77
2022/08/07 04:46:16;;;;;;;;;;;;;;;16.85;43.72;100424.56;1083638;54;19947;-75
2022/08/07 04:47:22;;;;;;;;;;;;;;;16.76;44.16;100422.94;1083161;54;19947;-75
2022/08/07 04:48:29;;;;;;;;;;;;;;;16.74;44.12;100427.66;1083175;54;20018;-75
2022/08/07 04:49:40;;;;;;;;;;;;;;;16.77;43.98;100424.63;1084146;54;19950;-75
2022/08/07 04:50:48;;;;;;;;;;;;;;;16.71;44.20;100434.25;1083834;54;20027;-77
2022/08/07 04:51:56;;;;;;;;;;;;;;;16.70;44.31;100427.16;1083611;54;20499;-75
2022/08/07 04:53:03;;;;;;;;;;;;;;;16.71;44.23;100430.72;1083630;54;19986;-75
2022/08/07 04:54:13;;;;;;;;;;;;;;;16.73;44.51;100439.47;1084263;54;19951;-76
2022/08/07 04:55:21;;;;;;;;;;;;;;;16.76;44.37;100429.19;1084077;54;19947;-75
2022/08/07 04:56:28;;;;;;;;;;;;;;;16.85;43.85;100440.78;1084282;54;19973;-76
2022/08/07 04:57:31;;;;;;;;;;;;;;;16.92;43.83;100435.50;1084231;54;19939;-76
2022/08/07 04:58:54;;;;;;;;;;;;;;;16.93;43.93;100440.75;1084011;54;20402;-76
2022/08/07 04:59:58;;;;;;;;;;;;;;;16.95;43.93;100435.19;1084025;54;20030;-76
2022/08/07 05:01:19;;;;;;;;;;;;;;;16.96;44.06;100440.41;1084053;54;19986;-76
2022/08/07 05:02:23;;;;;;;;;;;;;;;16.94;43.93;100436.22;1084399;39;20334;-78
2022/08/07 05:03:29;;;;;;;;;;;;;;;16.94;44.09;100433.50;1084659;54;19974;-76
2022/08/07 05:04:32;;;;;;;;;;;;;;;16.89;44.32;100443.94;1083917;54;19946;-77
2022/08/07 05:05:41;;;;;;;;;;;;;;;16.86;44.42;100439.75;1083573;54;19946;-76
2022/08/07 05:06:51;;;;;;;;;;;;;;;16.85;44.33;100435.38;1083418;54;19954;-76
2022/08/07 05:07:55;;;;;;;;;;;;;;;16.88;44.47;100436.88;1083887;54;20058;-77
2022/08/07 05:09:03;;;;;;;;;;;;;;;16.96;44.33;100437.72;1084093;47;19954;-77
2022/08/07 05:10:08;;;;;;;;;;;;;;;17.04;44.02;100438.69;1084142;54;19958;-76
2022/08/07 05:11:14;;;;;;;;;;;;;;;17.12;43.69;100442.19;1084354;47;19966;-76
2022/08/07 05:12:19;;;;;;;;;;;;;;;17.08;43.99;100446.25;1084106;54;19938;-75
2022/08/07 05:13:28;;;;;;;;;;;;;;;17.07;44.49;100441.03;1084035;54;19947;-76
2022/08/07 05:14:33;;;;;;;;;;;;;;;17.00;44.25;100444.41;1084043;54;19938;-77
2022/08/07 05:15:39;;;;;;;;;;;;;;;16.95;44.72;100441.44;1084215;46;19969;-77
2022/08/07 05:16:46;;;;;;;;;;;;;;;16.97;44.56;100442.09;1084006;54;20033;-77
2022/08/07 05:17:51;;;;;;;;;;;;;;;17.02;44.66;100438.00;1083977;54;19966;-77
2022/08/07 05:18:55;;;;;;;;;;;;;;;17.11;44.01;100447.75;1083954;54;19974;-77
2022/08/07 05:19:59;;;;;;;;;;;;;;;17.11;44.40;100439.63;1083696;54;19970;-75
2022/08/07 05:21:01;;;;;;;;;;;;;;;17.09;44.27;100452.50;1084241;54;19950;-75
2022/08/07 05:22:07;;;;;;;;;;;;;;;17.04;44.60;100444.94;1084054;54;20479;-74
2022/08/07 05:23:10;;;;;;;;;;;;;;;16.94;44.72;100445.16;1083780;54;19952;-75
2022/08/07 05:24:17;;;;;;;;;;;;;;;16.93;44.74;100442.59;1084712;46;19953;-75
2022/08/07 05:25:21;;;;;;;;;;;;;;;16.92;44.65;100449.00;1083793;54;19954;-75
2022/08/07 05:26:26;;;;;;;;;;;;;;;16.89;44.73;100441.25;1084394;47;19962;-76
2022/08/07 05:27:29;;;;;;;;;;;;;;;16.88;45.18;100437.72;1084084;46;19962;-75
2022/08/07 05:28:35;;;;;;;;;;;;;;;16.90;45.21;100443.81;1084884;39;20149;-76
2022/08/07 05:29:38;;;;;;;;;;;;;;;16.92;44.87;100440.91;1084235;54;19939;-75
2022/08/07 05:30:42;;;;;;;;;;;;;;;16.91;44.94;100439.22;1084147;54;20458;-75
2022/08/07 05:31:47;;;;;;;;;;;;;;;16.89;44.97;100436.72;1084076;54;19973;-77
2022/08/07 05:32:51;;;;;;;;;;;;;;;16.86;45.10;100437.06;1084433;39;20357;-76
2022/08/07 05:33:52;;;;;;;;;;;;;;;16.87;45.19;100441.44;1084091;54;19981;-75
2022/08/07 05:34:58;;;;;;;;;;;;;;;16.95;44.90;100446.81;1084048;54;19958;-76
2022/08/07 05:36:00;;;;;;;;;;;;;;;17.05;44.65;100440.34;1084177;54;19951;-75
2022/08/07 05:37:04;;;;;;;;;;;;;;;17.03;44.63;100443.25;1083937;54;20647;-75
2022/08/07 05:38:06;;;;;;;;;;;;;;;17.09;44.86;100442.53;1083836;54;19953;-75
2022/08/07 05:39:11;;;;;;;;;;;;;;;17.19;44.24;100439.63;1084044;54;19977;-77
2022/08/07 05:40:13;;;;;;;;;;;;;;;17.26;44.15;100443.28;1083919;54;19939;-74
2022/08/07 05:41:17;;;;;;;;;;;;;;;17.29;44.34;100437.50;1083290;54;20006;-74
2022/08/07 05:42:18;;;;;;;;;;;;;;;17.36;44.13;100442.19;1082962;54;19973;-75
2022/08/07 05:43:22;;;;;;;;;;;;;;;17.42;43.89;100436.91;1083605;54;19950;-75
2022/08/07 05:44:26;;;;;;;;;;;;;;;17.45;43.71;100436.53;1083725;54;20493;-74
2022/08/07 05:45:28;;;;;;;;;;;;;;;17.46;43.63;100438.22;1083792;54;19974;-75
2022/08/07 05:46:32;;;;;;;;;;;;;;;17.51;44.14;100443.09;1084295;39;20641;-76
2022/08/07 05:47:36;;;;;;;;;;;;;;;17.47;43.98;100444.50;1083795;54;19946;-78
2022/08/07 05:48:41;;;;;;;;;;;;;;;17.42;44.51;100452.28;1084111;54;19970;-77
2022/08/07 05:49:42;;;;;;;;;;;;;;;17.49;44.24;100447.81;1083890;54;19946;-76
2022/08/07 05:50:46;;;;;;;;;;;;;;;17.51;44.00;100445.78;1084126;39;20744;-78
2022/08/07 05:51:47;;;;;;;;;;;;;;;17.58;44.11;100446.75;1084326;46;19938;-76
2022/08/07 05:52:51;;;;;;;;;;;;;;;17.64;44.10;100444.34;1084656;39;20420;-77
2022/08/07 05:53:52;;;;;;;;;;;;;;;17.59;43.94;100456.53;1084273;54;19950;-77
2022/08/07 05:54:56;;;;;;;;;;;;;;;17.60;43.87;100449.28;1083970;47;19942;-76
2022/08/07 05:55:57;;;;;;;;;;;;;;;17.66;44.00;100453.13;1083756;54;19946;-77
2022/08/07 05:57:02;;;;;;;;;;;;;;;17.70;43.55;100449.88;1083582;54;19973;-77
2022/08/07 05:58:04;;;;;;;;;;;;;;;17.75;43.77;100454.75;1083767;54;19946;-77
2022/08/07 05:59:11;;;;;;;;;;;;;;;17.81;43.58;100458.56;1083191;54;19973;-76
2022/08/07 06:00:13;;;;;;;;;;;;;;;17.76;43.86;100459.09;1083187;54;19946;-76
2022/08/07 06:01:18;;;;;;;;;;;;;;;17.82;43.85;100462.94;1083469;54;19971;-77
2022/08/07 06:02:20;;;;;;;;;;;;;;;17.81;43.49;100458.56;1083875;47;19947;-77
2022/08/07 06:03:28;;;;;;;;;;;;;;;17.84;43.61;100467.16;1083638;54;19973;-76
2022/08/07 06:04:31;;;;;;;;;;;;;;;17.89;43.58;100459.34;1084156;46;19973;-76
2022/08/07 06:05:36;;;;;;;;;;;;;;;17.93;43.56;100460.66;1083637;54;19947;-76
2022/08/07 06:06:37;;;;;;;;;;;;;;;17.97;43.43;100460.31;1084100;54;19946;-76
2022/08/07 06:07:41;;;;;;;;;;;;;;;17.99;43.43;100461.81;1083750;47;20464;-79
2022/08/07 06:08:43;;;;;;;;;;;;;;;18.04;43.41;100462.09;1083998;47;20690;-79
2022/08/07 06:09:47;;;;;;;;;;;;;;;18.07;43.25;100460.88;1083809;54;19947;-76
2022/08/07 06:10:49;;;;;;;;;;;;;;;18.03;43.85;100465.00;1084074;54;19978;-77
2022/08/07 06:11:53;;;;;;;;;;;;;;;18.02;43.77;100469.56;1083712;54;20027;-76
2022/08/07 06:12:56;;;;;;;;;;;;;;;17.97;43.84;100460.31;1085277;39;20372;-76
2022/08/07 06:14:00;;;;;;;;;;;;;;;17.97;43.93;100458.47;1083903;54;19961;-77
2022/08/07 06:15:01;;;;;;;;;;;;;;;18.05;43.81;100474.59;1083890;54;20046;-77
2022/08/07 06:16:07;;;;;;;;;;;;;;;18.06;43.91;100459.19;1083674;54;19950;-76
2022/08/07 06:17:11;;;;;;;;;;;;;;;18.01;44.67;100465.16;1083169;54;19973;-77
2022/08/07 06:18:15;;;;;;;;;;;;;;;17.97;44.91;100468.41;1083555;54;19973;-77
2022/08/07 06:19:19;;;;;;;;;;;;;;;17.89;45.04;100466.63;1084285;39;20369;-78
2022/08/07 06:20:24;;;;;;;;;;;;;;;17.84;45.22;100459.06;1084229;54;19984;-78
2022/08/07 06:21:25;;;;;;;;;;;;;;;17.84;45.02;100466.31;1083903;54;19951;-76
2022/08/07 06:22:30;;;;;;;;;;;;;;;17.88;45.06;100465.75;1084195;54;19946;-77
2022/08/07 06:23:31;;;;;;;;;;;;;;;17.93;45.10;100466.06;1084508;39;20334;-76
2022/08/07 06:24:35;;;;;;;;;;;;;;;17.91;45.03;100462.69;1084088;54;19946;-76
2022/08/07 06:25:38;;;;;;;;;;;;;;;17.89;45.35;100463.91;1084053;54;20479;-77
2022/08/07 06:26:43;;;;;;;;;;;;;;;17.86;45.23;100465.09;1084057;54;19946;-76